Time;durP1;ratioP1;P1;durP2;ratioP2;P2;SDS_P1;SDS_P2;PMS_P1;PMS_P2;Temp;Humidity;BMP_temperature;BMP_pressure;BME280_temperature;BME280_humidity;BME280_pressure;Samples;Min_cycle;Max_cycle;Signal;HPM_P1;HPM_P2
2023/09/19 00:00:48;;;;;;;1.85;0.80;;;14.10;99.90;;;;;;5061769;28;20676;-74
2023/09/19 00:03:16;;;;;;;1.17;0.50;;;14.10;1.00;;;;;;5044458;28;20071;-74
2023/09/19 00:05:44;;;;;;;1.50;0.70;;;14.10;1.00;;;;;;5064007;28;20487;-73
2023/09/19 00:08:15;;;;;;;1.10;0.73;;;14.00;1.00;;;;;;5080984;28;20059;-73
2023/09/19 00:10:42;;;;;;;2.22;1.00;;;14.00;1.00;;;;;;5083216;28;20044;-74
2023/09/19 00:13:12;;;;;;;1.75;0.80;;;14.10;1.00;;;;;;5084129;28;20105;-74
2023/09/19 00:15:45;;;;;;;1.88;0.75;;;14.00;1.00;;;;;;5081525;28;20471;-73
2023/09/19 00:18:12;;;;;;;1.83;0.80;;;14.00;1.00;;;;;;5064793;28;20342;-73
2023/09/19 00:20:39;;;;;;;1.73;0.77;;;14.00;1.00;;;;;;5047290;28;20041;-73
2023/09/19 00:23:08;;;;;;;2.42;1.10;;;14.00;1.00;;;;;;5061744;28;20102;-74
2023/09/19 00:25:36;;;;;;;1.38;0.80;;;14.00;1.00;;;;;;5066753;28;20486;-73
2023/09/19 00:28:05;;;;;;;1.63;0.80;;;14.10;1.00;;;;;;5078698;28;20052;-73
2023/09/19 00:30:32;;;;;;;2.33;0.93;;;14.10;1.00;;;;;;5066313;28;20419;-73
2023/09/19 00:33:01;;;;;;;2.20;0.90;;;14.10;1.00;;;;;;5062587;28;20061;-74
2023/09/19 00:35:27;;;;;;;2.03;0.98;;;14.10;1.00;;;;;;5063633;28;20052;-73
2023/09/19 00:37:55;;;;;;;3.30;1.05;;;14.10;1.00;;;;;;5080544;28;20063;-73
2023/09/19 00:40:22;;;;;;;2.85;1.20;;;14.10;99.90;;;;;;5062573;28;20046;-74
2023/09/19 00:42:50;;;;;;;2.50;1.20;;;14.10;99.90;;;;;;5062304;28;20044;-73
2023/09/19 00:45:18;;;;;;;1.90;0.70;;;14.10;99.90;;;;;;5081651;28;20056;-74
2023/09/19 00:47:48;;;;;;;1.92;0.90;;;14.10;99.90;;;;;;5075112;28;20048;-73
2023/09/19 00:50:21;;;;;;;1.90;0.63;;;14.10;99.90;;;;;;5079116;28;20040;-73
2023/09/19 00:52:50;;;;;;;1.80;0.80;;;14.10;99.90;;;;;;5082052;28;20044;-73
2023/09/19 00:55:19;;;;;;;1.38;0.55;;;14.10;99.90;;;;;;5083122;28;20098;-74
2023/09/19 00:57:47;;;;;;;1.63;0.70;;;14.10;99.90;;;;;;5074666;28;20048;-73
2023/09/19 01:00:19;;;;;;;2.33;0.90;;;14.10;99.90;;;;;;5065313;28;20106;-73
2023/09/19 01:02:46;;;;;;;3.03;0.82;;;14.10;99.90;;;;;;5063178;28;20070;-73
2023/09/19 01:05:14;;;;;;;1.90;0.90;;;14.10;99.90;;;;;;5061156;28;20061;-73
2023/09/19 01:07:41;;;;;;;1.10;0.65;;;14.00;99.90;;;;;;5078305;28;20139;-73
2023/09/19 01:10:10;;;;;;;1.85;0.80;;;14.10;99.90;;;;;;5083554;28;20052;-73
2023/09/19 01:12:40;;;;;;;1.13;0.63;;;14.00;99.90;;;;;;5064511;28;20079;-73
2023/09/19 01:15:11;;;;;;;1.27;0.80;;;14.00;99.90;;;;;;5063107;28;20052;-74
2023/09/19 01:17:50;;;;;;;1.63;0.85;;;14.00;99.90;;;;;;5068345;28;20044;-73
2023/09/19 01:20:26;;;;;;;1.30;0.63;;;14.00;99.90;;;;;;5067176;28;20144;-74
2023/09/19 01:23:13;;;;;;;1.90;0.77;;;14.00;99.90;;;;;;5065721;28;20149;-74
2023/09/19 01:26:01;;;;;;;1.15;0.70;;;14.00;97.40;;;;;;5051855;28;20499;-74
2023/09/19 01:28:36;;;;;;;2.83;0.80;;;14.00;33.50;;;;;;5076339;28;20481;-73
2023/09/19 01:31:04;;;;;;;2.20;0.70;;;14.00;10.00;;;;;;5076757;28;20058;-73
2023/09/19 01:34:07;;;;;;;2.78;1.00;;;14.00;7.60;;;;;;5075699;28;20052;-73
2023/09/19 01:36:38;;;;;;;3.22;1.33;;;14.00;1.00;;;;;;5018593;28;20057;-73
2023/09/19 01:39:10;;;;;;;2.80;1.10;;;14.00;1.00;;;;;;5075249;28;20537;-74
2023/09/19 01:41:44;;;;;;;4.20;1.15;;;14.00;1.00;;;;;;5069224;28;20052;-74
2023/09/19 01:44:15;;;;;;;2.83;1.20;;;14.00;1.00;;;;;;5088992;28;20048;-74
2023/09/19 01:46:42;;;;;;;2.20;1.05;;;14.00;1.00;;;;;;5073996;28;20108;-74
2023/09/19 01:49:27;;;;;;;2.03;1.10;;;14.00;1.00;;;;;;5057303;28;20121;-74
2023/09/19 01:52:00;;;;;;;1.67;0.98;;;14.00;99.90;;;;;;5084686;28;20532;-74
2023/09/19 01:54:30;;;;;;;2.08;0.90;;;14.10;99.90;;;;;;5077458;28;20094;-74
2023/09/19 01:57:04;;;;;;;1.35;0.80;;;14.00;99.90;;;;;;5066524;28;20045;-74
2023/09/19 02:00:06;;;;;;;2.38;1.05;;;14.10;1.00;;;;;;5066801;28;20484;-74
2023/09/19 02:02:38;;;;;;;3.70;1.52;;;14.00;1.00;;;;;;5047418;28;20048;-74
2023/09/19 02:05:06;;;;;;;0.82;0.50;;;14.00;1.00;;;;;;5068872;28;20484;-74
2023/09/19 02:07:33;;;;;;;1.50;0.52;;;14.00;1.00;;;;;;5085239;28;20048;-74
2023/09/19 02:10:00;;;;;;;2.63;0.80;;;14.00;1.00;;;;;;5068813;28;20130;-74
2023/09/19 02:12:27;;;;;;;2.00;0.77;;;14.00;1.00;;;;;;5084791;28;20453;-74
2023/09/19 02:14:54;;;;;;;1.80;0.70;;;14.00;1.00;;;;;;5085468;28;20048;-74
2023/09/19 02:17:21;;;;;;;1.83;0.70;;;14.00;1.00;;;;;;5086519;28;20056;-74
2023/09/19 02:19:48;;;;;;;1.17;0.80;;;14.00;1.00;;;;;;5085570;28;20040;-74
2023/09/19 02:22:16;;;;;;;1.30;0.90;;;14.00;1.00;;;;;;5085003;28;20497;-74
2023/09/19 02:24:43;;;;;;;1.67;0.75;;;14.00;99.90;;;;;;5084876;28;20044;-74
2023/09/19 02:27:12;;;;;;;2.10;0.90;;;13.90;1.00;;;;;;5084983;28;20052;-74
2023/09/19 02:29:39;;;;;;;2.38;0.85;;;13.90;1.00;;;;;;5066780;28;20102;-74
2023/09/19 02:32:07;;;;;;;1.20;0.75;;;13.90;1.00;;;;;;5067007;28;20060;-74
2023/09/19 02:34:36;;;;;;;1.70;0.70;;;13.90;1.00;;;;;;5065433;28;20608;-74
2023/09/19 02:37:04;;;;;;;1.63;0.82;;;13.90;1.00;;;;;;5083975;28;20047;-74
2023/09/19 02:39:32;;;;;;;2.53;0.73;;;13.90;7.70;;;;;;5073034;28;20060;-74
2023/09/19 02:41:59;;;;;;;1.95;0.90;;;13.80;62.30;;;;;;5069625;28;20098;-74
2023/09/19 02:44:27;;;;;;;1.65;0.70;;;13.80;99.90;;;;;;5082123;28;20580;-74
2023/09/19 02:46:54;;;;;;;2.00;0.82;;;13.80;99.90;;;;;;5084864;28;20044;-74
2023/09/19 02:49:21;;;;;;;1.10;0.60;;;13.70;99.90;;;;;;5070334;28;20048;-74
2023/09/19 02:51:48;;;;;;;1.65;0.68;;;13.70;99.90;;;;;;5066432;28;20968;-74
2023/09/19 02:54:19;;;;;;;0.88;0.47;;;13.70;99.90;;;;;;5079875;28;20056;-74
2023/09/19 02:56:47;;;;;;;1.52;0.70;;;13.70;99.90;;;;;;5085771;28;20044;-74
2023/09/19 02:59:14;;;;;;;1.45;0.90;;;13.70;99.90;;;;;;5086396;28;20052;-74
2023/09/19 03:01:43;;;;;;;1.13;0.70;;;13.70;99.90;;;;;;5084785;28;20051;-73
2023/09/19 03:04:11;;;;;;;1.90;0.63;;;13.70;99.90;;;;;;5084361;28;20051;-74
2023/09/19 03:06:38;;;;;;;2.10;0.68;;;13.70;1.00;;;;;;5084412;28;20119;-74
2023/09/19 03:09:12;;;;;;;1.35;0.68;;;13.60;99.90;;;;;;5085779;28;20040;-73
2023/09/19 03:11:40;;;;;;;1.20;0.60;;;13.60;99.90;;;;;;5084157;28;20040;-74
2023/09/19 03:14:07;;;;;;;1.52;0.80;;;13.60;1.00;;;;;;5077032;28;20566;-73
2023/09/19 03:16:34;;;;;;;1.40;0.68;;;13.60;99.90;;;;;;5066666;28;20051;-74
2023/09/19 03:19:00;;;;;;;2.85;1.20;;;13.60;99.90;;;;;;5071507;28;20080;-74
2023/09/19 03:21:29;;;;;;;1.40;1.02;;;13.60;99.90;;;;;;5063685;28;20118;-74
2023/09/19 03:23:56;;;;;;;1.00;0.60;;;13.60;99.90;;;;;;5081910;28;20101;-74
2023/09/19 03:26:23;;;;;;;1.88;0.80;;;13.50;99.90;;;;;;5081557;28;20097;-74
2023/09/19 03:28:50;;;;;;;1.20;0.52;;;13.50;99.90;;;;;;5066837;28;20080;-74
2023/09/19 03:31:17;;;;;;;2.83;0.77;;;13.60;99.90;;;;;;5065980;28;20048;-74
2023/09/19 03:33:44;;;;;;;1.42;0.70;;;13.50;99.90;;;;;;5065837;28;20455;-74
2023/09/19 03:36:13;;;;;;;1.90;0.93;;;13.50;99.90;;;;;;5066236;28;20662;-74
2023/09/19 03:38:40;;;;;;;1.48;0.80;;;13.50;1.00;;;;;;5064298;28;20117;-74
2023/09/19 03:41:07;;;;;;;2.55;0.90;;;13.50;1.00;;;;;;5066197;28;20060;-74
2023/09/19 03:43:34;;;;;;;3.17;0.75;;;13.50;1.00;;;;;;5050869;28;20049;-74
2023/09/19 03:46:03;;;;;;;1.88;0.80;;;13.50;12.60;;;;;;5066018;28;20395;-73
2023/09/19 03:48:31;;;;;;;1.25;0.60;;;13.50;99.90;;;;;;5065436;28;20084;-73
2023/09/19 03:50:58;;;;;;;0.80;0.80;;;13.50;99.90;;;;;;5065536;28;20054;-73
2023/09/19 03:53:25;;;;;;;2.78;1.10;;;13.60;99.90;;;;;;5067707;28;20791;-74
2023/09/19 03:55:51;;;;;;;2.38;1.00;;;13.60;99.90;;;;;;5084514;28;20073;-74
2023/09/19 03:58:18;;;;;;;1.52;0.70;;;13.60;99.90;;;;;;5082969;28;20132;-74
2023/09/19 04:00:45;;;;;;;2.75;1.05;;;13.60;99.90;;;;;;5082980;28;20234;-74
2023/09/19 04:03:19;;;;;;;1.70;0.75;;;13.70;99.90;;;;;;5084563;28;20052;-74
2023/09/19 04:05:47;;;;;;;1.60;0.80;;;13.70;1.00;;;;;;5083415;28;20052;-73
2023/09/19 04:08:14;;;;;;;2.10;0.90;;;13.70;1.00;;;;;;5064586;28;20981;-74
2023/09/19 04:10:45;;;;;;;1.80;0.88;;;13.70;85.00;;;;;;5047627;28;20056;-74
2023/09/19 04:13:13;;;;;;;2.38;1.05;;;13.70;99.90;;;;;;5067771;28;20044;-74
2023/09/19 04:15:40;;;;;;;3.83;1.08;;;13.70;99.90;;;;;;5083069;28;20283;-74
2023/09/19 04:18:07;;;;;;;2.88;1.20;;;13.70;99.90;;;;;;5073088;28;20110;-74
2023/09/19 04:20:34;;;;;;;1.63;0.80;;;13.70;99.90;;;;;;5047623;28;20136;-74
2023/09/19 04:23:02;;;;;;;1.48;0.80;;;13.80;99.90;;;;;;5063442;28;20690;-74
2023/09/19 04:25:29;;;;;;;1.83;0.90;;;13.80;99.90;;;;;;5084080;28;20127;-74
2023/09/19 04:27:55;;;;;;;1.85;0.80;;;13.80;99.90;;;;;;5075023;28;20040;-74
2023/09/19 04:30:22;;;;;;;1.85;0.82;;;13.80;99.90;;;;;;5066200;28;20055;-74
2023/09/19 04:32:50;;;;;;;1.63;0.82;;;13.80;99.90;;;;;;5056776;28;20044;-74
2023/09/19 04:35:18;;;;;;;3.95;0.75;;;13.90;99.90;;;;;;5063137;28;20129;-74
2023/09/19 04:37:45;;;;;;;2.60;0.88;;;13.90;1.00;;;;;;5069778;28;20478;-74
2023/09/19 04:40:12;;;;;;;1.50;0.60;;;13.80;1.00;;;;;;5071284;28;20665;-73
2023/09/19 04:42:40;;;;;;;1.70;0.70;;;13.90;1.00;;;;;;5085675;28;20044;-73
2023/09/19 04:45:09;;;;;;;2.92;0.90;;;13.90;1.00;;;;;;5066633;28;20080;-73
2023/09/19 04:47:38;;;;;;;1.08;0.70;;;13.90;1.00;;;;;;5083710;28;20043;-73
2023/09/19 04:50:13;;;;;;;1.40;0.60;;;13.90;1.00;;;;;;5082450;28;20059;-73
2023/09/19 04:52:44;;;;;;;2.05;0.70;;;13.90;1.00;;;;;;5062978;28;20048;-74
2023/09/19 04:55:16;;;;;;;2.67;0.57;;;13.90;41.80;;;;;;5082744;28;20063;-74
2023/09/19 04:57:47;;;;;;;1.35;0.57;;;13.90;64.90;;;;;;5081097;28;20051;-74
2023/09/19 05:00:19;;;;;;;2.63;0.55;;;13.90;96.10;;;;;;5078724;28;20048;-74
2023/09/19 05:02:48;;;;;;;1.95;0.80;;;14.00;99.90;;;;;;5077302;28;20056;-74
2023/09/19 05:05:16;;;;;;;0.68;0.60;;;14.00;99.90;;;;;;5059611;28;20541;-74
2023/09/19 05:07:44;;;;;;;2.85;1.10;;;14.10;99.90;;;;;;5071350;28;20574;-74
2023/09/19 05:10:12;;;;;;;2.35;0.60;;;14.10;99.90;;;;;;5069727;28;20135;-74
2023/09/19 05:12:39;;;;;;;1.10;0.70;;;14.20;99.90;;;;;;5076054;28;20051;-75
2023/09/19 05:15:07;;;;;;;1.33;0.73;;;14.20;99.90;;;;;;5070535;28;20055;-75
2023/09/19 05:17:34;;;;;;;1.05;0.57;;;14.20;99.90;;;;;;5053452;28;20047;-75
2023/09/19 05:20:15;;;;;;;1.88;0.85;;;14.30;99.90;;;;;;5068561;28;20083;-75
2023/09/19 05:22:43;;;;;;;1.48;0.68;;;14.40;99.90;;;;;;5075050;28;20044;-75
2023/09/19 05:25:10;;;;;;;1.42;0.65;;;14.40;99.90;;;;;;5070944;28;20048;-75
2023/09/19 05:27:37;;;;;;;1.10;0.60;;;14.50;99.90;;;;;;5089748;28;20044;-75
2023/09/19 05:30:05;;;;;;;2.10;0.73;;;14.50;99.90;;;;;;5079778;28;20052;-75
2023/09/19 05:32:32;;;;;;;1.45;0.68;;;14.60;99.90;;;;;;5081525;28;20046;-73
2023/09/19 05:34:59;;;;;;;1.45;0.60;;;14.60;99.90;;;;;;5083131;28;20125;-73
2023/09/19 05:37:26;;;;;;;1.20;0.77;;;14.60;99.90;;;;;;5079497;28;20459;-73
2023/09/19 05:39:54;;;;;;;1.67;0.63;;;14.70;99.90;;;;;;5078426;28;20833;-73
2023/09/19 05:42:21;;;;;;;2.67;0.70;;;14.80;99.90;;;;;;5078392;28;20475;-73
2023/09/19 05:44:48;;;;;;;1.35;0.60;;;14.80;99.90;;;;;;5060404;28;20052;-73
2023/09/19 05:47:15;;;;;;;0.82;0.63;;;14.80;99.90;;;;;;5069398;28;20127;-73
2023/09/19 05:49:43;;;;;;;1.55;0.90;;;14.90;99.90;;;;;;5078011;28;20138;-72
2023/09/19 05:52:11;;;;;;;1.40;0.77;;;15.00;99.90;;;;;;5082262;28;20434;-72
2023/09/19 05:54:38;;;;;;;2.17;0.80;;;15.00;99.90;;;;;;5081421;28;20112;-73
2023/09/19 05:57:05;;;;;;;2.83;0.90;;;15.10;99.90;;;;;;5076602;28;20166;-73
2023/09/19 05:59:33;;;;;;;1.83;0.70;;;15.10;99.90;;;;;;5081836;28;20392;-72
2023/09/19 06:02:00;;;;;;;1.80;0.80;;;15.20;99.90;;;;;;5076326;28;20410;-76
2023/09/19 06:04:27;;;;;;;1.27;0.60;;;15.30;99.90;;;;;;5076664;28;20048;-73
2023/09/19 06:06:54;;;;;;;1.33;0.57;;;15.30;99.90;;;;;;5080843;28;20527;-73
2023/09/19 06:09:21;;;;;;;1.50;0.57;;;15.30;99.90;;;;;;5065773;28;20064;-73
2023/09/19 06:11:51;;;;;;;0.88;0.50;;;15.40;99.90;;;;;;5079740;28;20048;-73
2023/09/19 06:14:18;;;;;;;2.22;0.75;;;15.50;99.90;;;;;;5080015;28;20783;-79
2023/09/19 06:16:47;;;;;;;1.65;0.80;;;15.50;99.90;;;;;;5080931;28;20056;-81
2023/09/19 06:19:14;;;;;;;2.83;0.63;;;15.50;99.90;;;;;;5082484;28;20273;-79
2023/09/19 06:21:41;;;;;;;2.17;0.80;;;15.60;99.90;;;;;;5086252;28;20509;-81
2023/09/19 06:24:08;;;;;;;1.60;0.60;;;15.70;99.90;;;;;;5083608;28;20052;-80
2023/09/19 06:26:35;;;;;;;2.40;0.88;;;15.70;99.90;;;;;;5083763;28;20449;-79
2023/09/19 06:29:07;;;;;;;1.85;0.70;;;15.80;99.90;;;;;;5086350;28;20071;-79
2023/09/19 06:31:34;;;;;;;2.07;0.70;;;15.80;99.90;;;;;;5087655;28;20131;-79
2023/09/19 06:34:03;;;;;;;1.52;0.68;;;15.80;99.90;;;;;;5086545;28;20292;-80
2023/09/19 06:36:30;;;;;;;1.50;0.50;;;15.80;1.00;;;;;;5085697;28;20495;-79
2023/09/19 06:38:57;;;;;;;1.15;0.55;;;15.70;23.20;;;;;;5085150;28;20530;-80
2023/09/19 06:41:24;;;;;;;2.42;0.60;;;15.70;99.90;;;;;;5066226;28;20080;-79
2023/09/19 06:43:54;;;;;;;0.93;0.45;;;15.60;99.90;;;;;;5078787;28;20513;-79
2023/09/19 06:46:21;;;;;;;1.13;0.73;;;15.60;99.90;;;;;;5085855;28;20052;-79
2023/09/19 06:48:49;;;;;;;2.70;0.93;;;15.60;99.90;;;;;;5051087;28;20048;-79
2023/09/19 06:51:16;;;;;;;0.77;0.40;;;15.60;99.90;;;;;;5069948;28;20056;-80
2023/09/19 06:53:43;;;;;;;0.95;0.30;;;15.60;99.90;;;;;;5086195;28;20088;-79
2023/09/19 06:56:10;;;;;;;1.52;0.63;;;15.60;99.90;;;;;;5085985;28;20051;-79
2023/09/19 06:58:38;;;;;;;2.38;1.02;;;15.70;99.90;;;;;;5086275;28;20052;-80
2023/09/19 07:01:05;;;;;;;1.13;0.50;;;15.70;99.90;;;;;;5068822;28;20048;-80
2023/09/19 07:03:36;;;;;;;0.95;0.40;;;15.80;99.90;;;;;;5083983;28;20404;-80
2023/09/19 07:06:04;;;;;;;1.83;0.75;;;16.00;99.90;;;;;;5083063;28;20063;-82
2023/09/19 07:08:31;;;;;;;2.58;0.75;;;16.00;99.90;;;;;;5085227;28;20051;-80
2023/09/19 07:10:58;;;;;;;1.52;0.47;;;16.10;99.90;;;;;;5087303;28;20056;-80
2023/09/19 07:13:25;;;;;;;2.08;0.70;;;16.20;99.90;;;;;;5068509;28;20062;-79
2023/09/19 07:15:52;;;;;;;3.10;0.60;;;16.20;99.90;;;;;;5086655;28;20117;-80
2023/09/19 07:18:21;;;;;;;1.92;0.60;;;16.30;99.90;;;;;;5082496;28;20048;-79
2023/09/19 07:20:51;;;;;;;0.77;0.45;;;16.40;99.90;;;;;;5082551;28;20044;-80
2023/09/19 07:23:18;;;;;;;1.75;0.75;;;16.40;99.90;;;;;;5084045;28;20055;-81
2023/09/19 07:25:46;;;;;;;2.20;0.70;;;16.50;99.90;;;;;;5068762;28;20078;-80
2023/09/19 07:28:13;;;;;;;2.55;1.00;;;16.50;99.90;;;;;;5085681;28;20080;-80
2023/09/19 07:30:41;;;;;;;1.38;0.55;;;16.60;99.90;;;;;;5085354;28;20097;-79
2023/09/19 07:33:11;;;;;;;1.85;0.88;;;16.60;99.90;;;;;;5067623;28;20066;-80
2023/09/19 07:35:41;;;;;;;1.38;0.77;;;16.70;99.90;;;;;;5081974;28;20050;-80
2023/09/19 07:38:09;;;;;;;1.17;0.60;;;16.70;99.90;;;;;;5080710;28;20434;-80
2023/09/19 07:40:36;;;;;;;2.15;0.70;;;16.70;99.90;;;;;;5081722;28;20476;-80
2023/09/19 07:43:04;;;;;;;1.70;0.80;;;16.70;44.30;;;;;;5079316;28;20054;-79
2023/09/19 07:45:31;;;;;;;2.47;0.90;;;16.80;37.40;;;;;;5075026;28;20139;-79
2023/09/19 07:48:03;;;;;;;1.58;0.50;;;16.80;2.90;;;;;;5077469;28;20045;-80
2023/09/19 07:50:32;;;;;;;2.60;0.85;;;16.90;1.00;;;;;;5058422;28;20048;-80
2023/09/19 07:52:59;;;;;;;2.90;1.42;;;16.90;1.00;;;;;;5074514;28;20508;-80
2023/09/19 07:55:26;;;;;;;2.00;0.60;;;17.00;1.00;;;;;;5078408;28;20051;-80
2023/09/19 07:57:53;;;;;;;2.33;0.93;;;17.10;99.90;;;;;;5077644;28;20044;-82
2023/09/19 08:00:23;;;;;;;2.88;0.80;;;17.10;99.90;;;;;;5072051;28;20052;-82
2023/09/19 08:02:52;;;;;;;3.10;1.13;;;17.10;99.90;;;;;;5046595;28;20105;-80
2023/09/19 08:05:27;;;;;;;2.60;1.00;;;17.10;99.90;;;;;;5075558;28;20170;-80
2023/09/19 08:07:56;;;;;;;2.72;1.08;;;17.10;99.90;;;;;;5077088;28;20044;-80
2023/09/19 08:10:27;;;;;;;3.75;1.63;;;17.10;99.90;;;;;;5060704;28;20081;-81
2023/09/19 08:12:57;;;;;;;3.38;1.48;;;17.10;99.90;;;;;;5076647;28;20044;-80
2023/09/19 08:15:24;;;;;;;3.75;1.55;;;17.00;1.00;;;;;;5060848;28;20430;-80
2023/09/19 08:17:51;;;;;;;4.22;1.67;;;16.90;99.90;;;;;;5079323;28;20056;-79
2023/09/19 08:20:19;;;;;;;5.38;1.52;;;16.90;1.00;;;;;;5074781;28;20084;-80
2023/09/19 08:22:48;;;;;;;3.15;1.27;;;16.80;1.00;;;;;;5072019;28;20551;-81
2023/09/19 08:25:19;;;;;;;3.92;2.00;;;16.80;1.00;;;;;;5078786;28;20086;-81
2023/09/19 08:27:48;;;;;;;3.58;1.67;;;16.90;99.90;;;;;;5071082;28;20558;-81
2023/09/19 08:30:16;;;;;;;3.42;1.33;;;16.70;99.90;;;;;;5074861;28;20059;-81
2023/09/19 08:32:43;;;;;;;4.35;1.35;;;16.60;99.90;;;;;;5074989;28;20106;-81
2023/09/19 08:35:10;;;;;;;4.65;1.65;;;16.60;99.90;;;;;;5078195;28;20134;-81
2023/09/19 08:37:38;;;;;;;4.30;1.55;;;16.70;99.90;;;;;;5076650;28;20054;-82
2023/09/19 08:40:09;;;;;;;2.55;1.25;;;16.70;99.90;;;;;;5060257;28;20452;-80
2023/09/19 08:42:53;;;;;;;3.38;1.13;;;16.80;99.90;;;;;;5077807;28;20043;-80
2023/09/19 08:45:27;;;;;;;3.78;1.52;;;16.80;99.90;;;;;;5074617;28;20052;-81
2023/09/19 08:48:11;;;;;;;3.40;1.83;;;16.80;99.90;;;;;;5085504;28;20188;-81
2023/09/19 08:51:01;;;;;;;4.50;1.95;;;17.00;91.20;;;;;;5070047;28;20056;-80
2023/09/19 08:53:42;;;;;;;3.90;1.90;;;17.20;66.30;;;;;;5068873;28;20044;-81
2023/09/19 08:56:10;;;;;;;3.45;1.92;;;17.30;1.00;;;;;;5086388;28;20120;-81
2023/09/19 08:58:53;;;;;;;4.60;1.90;;;17.40;1.00;;;;;;5076074;28;20131;-81
2023/09/19 09:01:24;;;;;;;3.88;2.10;;;17.50;99.90;;;;;;5074425;28;20051;-82
2023/09/19 09:03:53;;;;;;;5.68;2.28;;;17.70;1.00;;;;;;5081664;28;20089;-81
2023/09/19 09:06:23;;;;;;;6.45;2.22;;;17.80;6.90;;;;;;5083104;28;20048;-82
2023/09/19 09:08:52;;;;;;;5.13;2.42;;;17.90;99.90;;;;;;5085210;28;20052;-82
2023/09/19 09:11:19;;;;;;;3.25;1.73;;;17.90;85.70;;;;;;5064466;28;20058;-81
2023/09/19 09:13:46;;;;;;;6.70;2.63;;;18.10;99.90;;;;;;5080309;28;20056;-82
2023/09/19 09:16:17;;;;;;;5.55;2.75;;;18.10;99.90;;;;;;5083366;28;20495;-83
2023/09/19 09:18:52;;;;;;;5.10;2.65;;;18.10;1.00;;;;;;5067634;28;20049;-81
2023/09/19 09:21:21;;;;;;;5.45;2.38;;;18.20;1.00;;;;;;5094347;28;20052;-82
2023/09/19 09:23:52;;;;;;;4.32;2.35;;;18.30;99.90;;;;;;5042468;28;20571;-82
2023/09/19 09:26:36;;;;;;;3.97;1.88;;;18.30;99.90;;;;;;5043990;28;20079;-82
2023/09/19 09:29:03;;;;;;;5.72;2.58;;;18.40;1.00;;;;;;5060128;28;20067;-82
2023/09/19 09:31:31;;;;;;;4.00;2.35;;;18.40;1.00;;;;;;5077828;28;20058;-82
2023/09/19 09:33:58;;;;;;;5.70;2.72;;;18.60;99.90;;;;;;5081017;28;20052;-81
2023/09/19 09:36:38;;;;;;;3.88;2.25;;;18.90;1.00;;;;;;5066124;28;20052;-82
2023/09/19 09:39:18;;;;;;;6.45;3.15;;;19.10;99.90;;;;;;5087628;28;20471;-82
2023/09/19 09:41:45;;;;;;;5.57;2.83;;;18.90;99.90;;;;;;5088607;28;20100;-82
2023/09/19 09:44:17;;;;;;;5.00;2.70;;;18.80;1.00;;;;;;5087272;28;20087;-81
2023/09/19 09:49:33;;;;;;;6.40;3.22;;;18.80;99.90;;;;;;5072061;28;20158;-82
2023/09/19 09:52:05;;;;;;;5.22;2.70;;;18.80;81.50;;;;;;5070830;28;20447;-82
2023/09/19 09:54:38;;;;;;;5.25;2.45;;;18.80;38.60;;;;;;5085364;28;20051;-82
2023/09/19 09:57:24;;;;;;;5.03;2.60;;;18.90;99.90;;;;;;5050923;28;20075;-82
2023/09/19 09:59:58;;;;;;;6.35;3.00;;;19.00;99.90;;;;;;5084113;28;20047;-82
2023/09/19 10:02:28;;;;;;;6.75;2.63;;;19.10;97.80;;;;;;5070450;28;20052;-81
2023/09/19 10:05:07;;;;;;;4.80;2.30;;;18.90;99.90;;;;;;5086608;28;20044;-81
2023/09/19 10:07:50;;;;;;;5.72;2.80;;;18.70;99.90;;;;;;5085389;28;20087;-81
2023/09/19 10:10:37;;;;;;;5.78;3.00;;;18.70;99.90;;;;;;5086881;28;20051;-82
2023/09/19 10:13:07;;;;;;;4.78;2.42;;;19.00;99.90;;;;;;5088088;28;20609;-81
2023/09/19 10:15:36;;;;;;;6.32;2.97;;;19.20;36.10;;;;;;5086732;28;20155;-82
2023/09/19 10:18:04;;;;;;;5.05;2.75;;;19.40;1.00;;;;;;5088071;28;20055;-81
2023/09/19 10:20:36;;;;;;;6.28;2.90;;;19.40;1.00;;;;;;5049871;28;20123;-82
2023/09/19 10:23:12;;;;;;;6.10;2.92;;;19.20;1.00;;;;;;5065147;28;20122;-81
2023/09/19 10:25:43;;;;;;;6.20;3.15;;;19.10;1.00;;;;;;5050809;28;20131;-81
2023/09/19 10:28:11;;;;;;;5.43;2.70;;;19.00;1.00;;;;;;5084235;28;20052;-81
2023/09/19 10:30:47;;;;;;;7.85;2.92;;;18.90;34.20;;;;;;5053705;28;20047;-82
2023/09/19 10:33:15;;;;;;;5.82;2.78;;;18.70;99.90;;;;;;5087734;28;20060;-81
2023/09/19 10:35:44;;;;;;;5.32;2.35;;;18.70;99.90;;;;;;5086377;28;20048;-82
2023/09/19 10:38:11;;;;;;;4.10;2.50;;;18.70;99.90;;;;;;5085264;28;20091;-82
2023/09/19 10:40:45;;;;;;;4.55;2.40;;;18.80;99.90;;;;;;5069556;28;20139;-82
2023/09/19 10:43:17;;;;;;;4.78;2.35;;;18.90;99.90;;;;;;5071685;28;20052;-82
2023/09/19 10:45:45;;;;;;;7.07;2.90;;;19.10;99.90;;;;;;5066195;28;20135;-81
2023/09/19 10:48:12;;;;;;;7.28;2.95;;;19.20;28.00;;;;;;5082534;28;20049;-81
2023/09/19 10:50:46;;;;;;;5.82;3.15;;;19.40;1.00;;;;;;5077819;28;20048;-81
2023/09/19 10:53:13;;;;;;;5.35;2.67;;;19.60;1.00;;;;;;5082940;28;20562;-81
2023/09/19 10:55:40;;;;;;;6.60;3.65;;;19.70;1.00;;;;;;5063302;28;20067;-81
2023/09/19 10:58:14;;;;;;;6.63;2.70;;;20.00;99.90;;;;;;5064011;28;20060;-81
2023/09/19 11:00:54;;;;;;;4.70;2.75;;;20.10;99.90;;;;;;5059675;28;20495;-81
2023/09/19 11:03:23;;;;;;;7.22;2.70;;;20.00;99.90;;;;;;5063409;28;20055;-82
2023/09/19 11:06:04;;;;;;;7.03;3.10;;;20.20;99.90;;;;;;5067243;28;20048;-82
2023/09/19 11:08:58;;;;;;;3.75;2.53;;;20.20;99.90;;;;;;5047724;28;20059;-82
2023/09/19 11:11:46;;;;;;;3.95;2.25;;;20.30;99.90;;;;;;5064958;28;20476;-81
2023/09/19 11:14:25;;;;;;;3.70;1.80;;;20.40;99.90;;;;;;5065399;28;20109;-81
2023/09/19 11:17:11;;;;;;;3.25;2.20;;;20.40;99.90;;;;;;5066286;28;20052;-81
2023/09/19 11:22:50;;;;;;;6.43;2.40;;;20.10;99.90;;;;;;5084990;28;20071;-82
2023/09/19 11:25:29;;;;;;;5.88;2.42;;;19.80;99.90;;;;;;5083514;28;20080;-81
2023/09/19 11:28:13;;;;;;;5.57;2.75;;;19.50;1.00;;;;;;5083584;28;20063;-81
2023/09/19 11:30:43;;;;;;;5.27;2.70;;;19.40;99.90;;;;;;5085271;28;20097;-81
2023/09/19 11:33:23;;;;;;;5.95;2.88;;;19.20;99.90;;;;;;5068552;28;20264;-81
2023/09/19 11:36:07;;;;;;;4.70;2.50;;;19.10;97.00;;;;;;5084945;28;20040;-81
2023/09/19 11:38:47;;;;;;;5.22;2.28;;;19.10;99.90;;;;;;5083950;28;20059;-81
2023/09/19 11:41:27;;;;;;;4.45;2.40;;;19.20;99.90;;;;;;5086093;28;20052;-81
2023/09/19 11:44:16;;;;;;;3.42;2.17;;;19.40;99.90;;;;;;5086609;28;20135;-81
2023/09/19 11:46:54;;;;;;;5.47;2.78;;;19.60;1.00;;;;;;5084735;28;20317;-81
2023/09/19 11:49:34;;;;;;;6.30;3.05;;;19.70;1.00;;;;;;5084405;28;20050;-81
2023/09/19 11:52:04;;;;;;;7.07;2.70;;;19.70;1.00;;;;;;5080489;28;20056;-81
2023/09/19 11:54:32;;;;;;;4.13;2.10;;;19.70;1.00;;;;;;5082322;28;20127;-81
2023/09/19 11:56:59;;;;;;;3.63;2.40;;;19.70;1.00;;;;;;5084273;28;20116;-82
2023/09/19 11:59:30;;;;;;;4.40;2.50;;;19.70;43.00;;;;;;5085231;28;20083;-81
2023/09/19 12:02:03;;;;;;;4.28;2.30;;;19.80;78.60;;;;;;5085578;28;20048;-81
2023/09/19 12:04:37;;;;;;;6.05;2.40;;;19.70;1.00;;;;;;5069003;28;20130;-81
2023/09/19 12:07:14;;;;;;;3.63;2.10;;;19.50;99.90;;;;;;5083276;28;20296;-81
2023/09/19 12:09:44;;;;;;;4.80;2.05;;;19.40;1.00;;;;;;5069433;28;20051;-81
2023/09/19 12:12:15;;;;;;;3.70;1.90;;;19.30;99.90;;;;;;5067740;28;20561;-82
2023/09/19 12:14:43;;;;;;;4.75;2.80;;;19.30;99.90;;;;;;5068408;28;20044;-80
2023/09/19 12:17:10;;;;;;;5.65;2.83;;;19.20;99.90;;;;;;5051004;28;20048;-81
2023/09/19 12:19:38;;;;;;;4.70;2.20;;;19.20;1.00;;;;;;5071268;28;20101;-81
2023/09/19 12:22:05;;;;;;;3.50;2.10;;;19.20;63.90;;;;;;5058608;28;20798;-83
2023/09/19 12:24:33;;;;;;;6.22;2.50;;;19.20;99.90;;;;;;5078988;28;20056;-82
2023/09/19 12:27:05;;;;;;;4.70;1.90;;;19.20;99.90;;;;;;5074662;28;20054;-81
2023/09/19 12:29:46;;;;;;;2.75;1.90;;;19.30;1.00;;;;;;5075359;28;20051;-82
2023/09/19 12:32:14;;;;;;;5.32;2.45;;;19.20;83.50;;;;;;5026135;28;20064;-82
2023/09/19 12:34:45;;;;;;;3.13;1.55;;;19.10;1.00;;;;;;5070554;28;20040;-81
2023/09/19 12:37:22;;;;;;;2.83;1.85;;;19.10;99.90;;;;;;5072142;28;20105;-81
2023/09/19 12:39:51;;;;;;;3.78;2.03;;;19.10;99.90;;;;;;5071052;28;20067;-83
2023/09/19 12:42:24;;;;;;;3.80;2.00;;;19.10;99.90;;;;;;5078327;28;20059;-80
2023/09/19 12:45:00;;;;;;;3.28;1.80;;;19.00;46.30;;;;;;5064665;28;20048;-81
2023/09/19 12:47:29;;;;;;;3.90;1.70;;;19.00;99.90;;;;;;5082473;28;20517;-78
2023/09/19 12:50:25;;;;;;;2.88;1.77;;;18.90;99.90;;;;;;5083721;28;20643;-82
2023/09/19 12:52:52;;;;;;;2.92;1.70;;;18.90;68.00;;;;;;5082079;28;20044;-82
2023/09/19 12:55:32;;;;;;;2.60;1.58;;;18.90;99.90;;;;;;5066346;28;20048;-82
2023/09/19 12:58:09;;;;;;;2.38;1.30;;;18.90;99.90;;;;;;5082485;28;20059;-83
2023/09/19 13:00:47;;;;;;;3.53;1.90;;;19.00;99.90;;;;;;5080576;28;20109;-82
2023/09/19 13:03:32;;;;;;;3.55;1.85;;;19.00;1.00;;;;;;5064929;28;20052;-82
2023/09/19 13:06:00;;;;;;;2.38;1.45;;;19.10;99.90;;;;;;5080886;28;20051;-82
2023/09/19 13:08:30;;;;;;;4.00;2.03;;;19.10;99.90;;;;;;5081651;28;20605;-81
2023/09/19 13:11:14;;;;;;;2.67;1.67;;;19.20;1.00;;;;;;5082195;28;20498;-81
2023/09/19 13:13:41;;;;;;;;;;;19.30;1.00;;;;;;5086868;28;20055;-81